Time;durP1;ratioP1;P1;durP2;ratioP2;P2;SDS_P1;SDS_P2;PMS_P1;PMS_P2;Temp;Humidity;BMP_temperature;BMP_pressure;BME280_temperature;BME280_humidity;BME280_pressure;Samples;Min_cycle;Max_cycle;Signal;HPM_P1;HPM_P2
2022/06/25 00:01:13;;;;;;;13.20;9.93;;;18.40;99.90;;;;;;5064298;28;20092;-80
2022/06/25 00:03:39;;;;;;;12.95;10.20;;;18.40;99.90;;;;;;5043657;28;20410;-80
2022/06/25 00:06:06;;;;;;;14.45;10.48;;;18.40;99.90;;;;;;5068621;28;20040;-80
2022/06/25 00:08:33;;;;;;;15.93;10.65;;;18.40;99.90;;;;;;5068256;28;20470;-80
2022/06/25 00:10:59;;;;;;;14.02;10.45;;;18.40;99.90;;;;;;5050576;28;20429;-80
2022/06/25 00:13:25;;;;;;;13.25;10.68;;;18.40;99.90;;;;;;5065116;28;20052;-80
2022/06/25 00:15:51;;;;;;;13.90;10.40;;;18.40;99.90;;;;;;5044994;28;20032;-79
2022/06/25 00:18:17;;;;;;;13.50;10.77;;;18.40;99.90;;;;;;5085680;28;20047;-80
2022/06/25 00:20:46;;;;;;;14.32;10.77;;;18.40;99.90;;;;;;5080888;28;20451;-80
2022/06/25 00:23:13;;;;;;;14.18;10.73;;;18.40;99.90;;;;;;5045536;28;20039;-80
2022/06/25 00:25:39;;;;;;;16.92;12.07;;;18.40;99.90;;;;;;5083972;28;20132;-80
2022/06/25 00:28:05;;;;;;;15.20;11.30;;;18.40;99.90;;;;;;5065137;28;20123;-80
2022/06/25 00:30:31;;;;;;;16.33;11.95;;;18.40;99.90;;;;;;5063671;28;20044;-80
2022/06/25 00:32:57;;;;;;;14.60;11.55;;;18.40;99.90;;;;;;5066179;28;20049;-80
2022/06/25 00:35:23;;;;;;;15.75;11.90;;;18.40;99.90;;;;;;5052683;28;20039;-80
2022/06/25 00:37:49;;;;;;;16.58;12.05;;;18.40;99.90;;;;;;5069056;28;20446;-80
2022/06/25 00:40:14;;;;;;;16.02;12.18;;;18.40;99.90;;;;;;5049391;28;20041;-80
2022/06/25 00:42:49;;;;;;;14.95;11.95;;;18.40;99.90;;;;;;5063813;28;20039;-80
2022/06/25 00:45:15;;;;;;;14.27;11.48;;;18.40;99.90;;;;;;5066206;28;20044;-80
2022/06/25 00:47:41;;;;;;;15.82;12.15;;;18.40;99.90;;;;;;5074751;28;20040;-81
2022/06/25 00:50:08;;;;;;;14.07;10.77;;;18.40;99.90;;;;;;5082129;28;20039;-80
2022/06/25 00:52:35;;;;;;;13.90;10.93;;;18.40;99.90;;;;;;5081760;28;20056;-80
2022/06/25 00:55:12;;;;;;;14.38;10.77;;;18.30;99.90;;;;;;5049901;28;20044;-80
2022/06/25 00:57:43;;;;;;;14.88;11.05;;;18.40;99.90;;;;;;5079900;28;20033;-80
2022/06/25 01:00:20;;;;;;;15.07;11.20;;;18.30;99.90;;;;;;5078952;28;20351;-80
2022/06/25 01:02:46;;;;;;;14.90;11.07;;;18.30;99.90;;;;;;5083558;28;20360;-80
2022/06/25 01:05:13;;;;;;;16.40;10.65;;;18.30;99.90;;;;;;5064413;28;20387;-80
2022/06/25 01:07:42;;;;;;;14.98;10.25;;;18.30;99.90;;;;;;5066502;28;20075;-80
2022/06/25 01:10:09;;;;;;;13.35;9.63;;;18.20;99.90;;;;;;5080695;28;20036;-80
2022/06/25 01:12:34;;;;;;;13.95;10.30;;;18.10;99.90;;;;;;5065441;28;20052;-80
2022/06/25 01:15:09;;;;;;;14.93;9.77;;;18.00;99.90;;;;;;5081703;28;20106;-80
2022/06/25 01:17:38;;;;;;;15.73;9.90;;;18.00;99.90;;;;;;5068518;28;20036;-80
2022/06/25 01:20:05;;;;;;;14.15;9.30;;;17.90;99.90;;;;;;5079906;28;20121;-80
2022/06/25 01:22:32;;;;;;;15.35;9.38;;;17.80;99.90;;;;;;5064302;28;20040;-80
2022/06/25 01:24:58;;;;;;;11.90;7.63;;;17.70;99.90;;;;;;5063441;28;20599;-80
2022/06/25 01:27:23;;;;;;;14.38;8.68;;;17.60;99.90;;;;;;5061395;28;20040;-80
2022/06/25 01:29:49;;;;;;;13.27;8.32;;;17.50;99.90;;;;;;5068674;28;20161;-80
2022/06/25 01:32:15;;;;;;;13.07;8.48;;;17.50;99.90;;;;;;5066712;28;20570;-80
2022/06/25 01:34:41;;;;;;;16.77;8.85;;;17.40;99.90;;;;;;5064961;28;20039;-80
2022/06/25 01:37:06;;;;;;;11.98;8.60;;;17.40;99.90;;;;;;5063764;28;20079;-79
2022/06/25 01:39:32;;;;;;;12.85;8.38;;;17.40;99.90;;;;;;5065620;28;20044;-80
2022/06/25 01:41:58;;;;;;;12.73;7.72;;;17.30;99.90;;;;;;5065240;28;20024;-80
2022/06/25 01:44:24;;;;;;;11.82;8.30;;;17.30;99.90;;;;;;5065252;28;20070;-80
2022/06/25 01:46:50;;;;;;;13.57;8.90;;;17.30;99.90;;;;;;5048343;28;20040;-80
2022/06/25 01:49:16;;;;;;;13.75;9.25;;;17.30;99.90;;;;;;5079718;28;20093;-80
2022/06/25 01:51:41;;;;;;;12.05;8.57;;;17.30;99.90;;;;;;5030255;28;20083;-80
2022/06/25 01:54:07;;;;;;;16.48;8.40;;;17.40;99.90;;;;;;5079734;28;20188;-80
2022/06/25 01:56:33;;;;;;;15.13;9.13;;;17.20;99.90;;;;;;5064943;28;20040;-80
2022/06/25 01:58:59;;;;;;;13.52;8.13;;;17.20;99.90;;;;;;5063444;28;20033;-80
2022/06/25 02:01:24;;;;;;;12.90;8.55;;;17.20;99.90;;;;;;5066643;28;20066;-80
2022/06/25 02:03:50;;;;;;;14.63;8.30;;;17.20;99.90;;;;;;5051148;28;20037;-80
2022/06/25 02:06:16;;;;;;;13.15;8.13;;;17.20;99.90;;;;;;5038232;28;20040;-80
2022/06/25 02:08:42;;;;;;;13.57;8.00;;;17.20;99.90;;;;;;5065283;28;20040;-79
2022/06/25 02:11:09;;;;;;;12.15;8.43;;;17.20;99.90;;;;;;5081916;28;20405;-80
2022/06/25 02:13:35;;;;;;;13.18;7.75;;;17.20;99.90;;;;;;5027642;28;20055;-80
2022/06/25 02:16:01;;;;;;;13.32;7.90;;;17.20;99.90;;;;;;5043909;28;20067;-80
2022/06/25 02:18:27;;;;;;;13.20;8.23;;;17.20;99.90;;;;;;5064018;28;20482;-80
2022/06/25 02:20:54;;;;;;;12.18;8.20;;;17.20;99.90;;;;;;5060660;28;20040;-80
2022/06/25 02:23:21;;;;;;;12.02;7.80;;;17.20;99.90;;;;;;5063347;28;20036;-80
2022/06/25 02:25:47;;;;;;;11.48;7.75;;;17.20;99.90;;;;;;5064548;28;20032;-80
2022/06/25 02:28:14;;;;;;;11.63;6.90;;;17.20;99.90;;;;;;5066436;28;20036;-79
2022/06/25 02:30:40;;;;;;;15.50;7.50;;;17.20;99.90;;;;;;5083500;28;20127;-80
2022/06/25 02:33:11;;;;;;;12.18;7.57;;;17.10;99.90;;;;;;5049578;28;20124;-80
2022/06/25 02:35:38;;;;;;;11.90;7.80;;;17.10;99.90;;;;;;5064828;28;20056;-80
2022/06/25 02:38:04;;;;;;;11.18;7.60;;;17.10;99.90;;;;;;5033616;28;20165;-79
2022/06/25 02:40:30;;;;;;;11.57;7.43;;;17.10;99.90;;;;;;5083938;28;20159;-80
2022/06/25 02:42:56;;;;;;;13.82;7.82;;;17.10;99.90;;;;;;5050016;28;20031;-80
2022/06/25 02:45:21;;;;;;;12.98;8.02;;;17.10;99.90;;;;;;5062063;28;20099;-80
2022/06/25 02:47:47;;;;;;;11.55;7.05;;;17.00;99.90;;;;;;5067798;28;20051;-79
2022/06/25 02:50:13;;;;;;;12.00;7.47;;;17.00;99.90;;;;;;5046907;28;20138;-80
2022/06/25 02:52:39;;;;;;;11.70;7.75;;;17.00;99.90;;;;;;5022482;28;20048;-79
2022/06/25 02:55:05;;;;;;;12.18;7.90;;;17.00;99.90;;;;;;5047190;28;20470;-80
2022/06/25 03:00:15;;;;;;;12.43;7.82;;;16.90;99.90;;;;;;5065451;28;20067;-80
2022/06/25 03:02:42;;;;;;;10.90;7.60;;;17.00;99.90;;;;;;5079928;28;20075;-80
2022/06/25 03:05:08;;;;;;;13.32;7.80;;;17.00;99.90;;;;;;5078964;28;20048;-80
2022/06/25 03:07:34;;;;;;;12.88;7.57;;;17.00;99.90;;;;;;5047215;28;20044;-80
2022/06/25 03:10:00;;;;;;;10.68;7.43;;;17.00;99.90;;;;;;5065178;28;20413;-80
2022/06/25 03:12:25;;;;;;;11.02;7.30;;;17.00;99.90;;;;;;5080117;28;20100;-79
2022/06/25 03:14:51;;;;;;;11.57;7.45;;;17.00;99.90;;;;;;5067539;28;20066;-79
2022/06/25 03:17:17;;;;;;;12.82;6.95;;;17.00;99.90;;;;;;5054104;28;20039;-79
2022/06/25 03:19:43;;;;;;;12.88;7.10;;;17.00;99.90;;;;;;5047067;28;20039;-80
2022/06/25 03:22:08;;;;;;;12.05;7.28;;;17.10;99.90;;;;;;5030548;28;20521;-80
2022/06/25 03:24:34;;;;;;;12.70;7.63;;;17.10;99.90;;;;;;5068584;28;20493;-80
2022/06/25 03:27:00;;;;;;;10.95;6.90;;;17.10;99.90;;;;;;5084339;28;20663;-80
2022/06/25 03:29:25;;;;;;;11.75;6.97;;;17.10;99.90;;;;;;5035144;28;20417;-80
2022/06/25 03:31:51;;;;;;;11.45;7.00;;;17.10;99.90;;;;;;5082953;28;20558;-80
2022/06/25 03:34:17;;;;;;;11.07;7.18;;;17.10;99.90;;;;;;5087326;28;20118;-80
2022/06/25 03:36:42;;;;;;;13.00;6.97;;;17.10;99.90;;;;;;5032527;28;20036;-80
2022/06/25 03:39:08;;;;;;;11.02;6.88;;;17.10;99.90;;;;;;5086525;28;20077;-81
2022/06/25 03:41:37;;;;;;;11.98;7.05;;;17.00;99.90;;;;;;5027197;28;20062;-80
2022/06/25 03:44:08;;;;;;;10.15;5.90;;;17.00;99.90;;;;;;5054263;28;20036;-80
2022/06/25 03:46:35;;;;;;;11.52;6.53;;;17.00;99.90;;;;;;5067913;28;20039;-80
2022/06/25 03:49:02;;;;;;;10.77;6.80;;;17.00;99.90;;;;;;5086903;28;20125;-80
2022/06/25 03:51:28;;;;;;;13.77;7.00;;;16.90;99.90;;;;;;5069697;28;20040;-79
2022/06/25 03:53:54;;;;;;;10.20;6.85;;;16.90;99.90;;;;;;5068774;28;20062;-80
2022/06/25 03:56:20;;;;;;;11.93;6.65;;;16.90;99.90;;;;;;5069195;28;20432;-79
2022/06/25 03:58:47;;;;;;;11.63;7.03;;;16.90;99.90;;;;;;5066703;28;20120;-79
2022/06/25 04:01:13;;;;;;;10.95;6.80;;;17.00;99.90;;;;;;5081007;28;20064;-80
2022/06/25 04:03:39;;;;;;;11.15;6.50;;;17.00;99.90;;;;;;5085363;28;20464;-79
2022/06/25 04:06:06;;;;;;;10.55;7.18;;;17.00;99.90;;;;;;5082972;28;20040;-80
2022/06/25 04:08:32;;;;;;;10.55;7.05;;;17.00;99.90;;;;;;5050690;28;20039;-79
2022/06/25 04:10:58;;;;;;;11.00;6.82;;;17.10;99.90;;;;;;5065035;28;20047;-79
2022/06/25 04:13:23;;;;;;;11.60;7.70;;;17.10;99.90;;;;;;5085335;28;20135;-79
2022/06/25 04:15:51;;;;;;;11.68;7.40;;;17.20;99.90;;;;;;5065716;28;20097;-79
2022/06/25 04:18:17;;;;;;;11.30;6.93;;;17.30;99.90;;;;;;5028614;28;20376;-79
2022/06/25 04:20:43;;;;;;;14.13;7.53;;;17.40;99.90;;;;;;5065987;28;20124;-79
2022/06/25 04:23:09;;;;;;;10.63;6.97;;;17.40;99.90;;;;;;5064667;28;20106;-79
2022/06/25 04:25:35;;;;;;;11.60;7.32;;;17.50;99.90;;;;;;5024480;28;20519;-79
2022/06/25 04:30:45;;;;;;;11.77;7.70;;;17.70;99.90;;;;;;5083922;28;20513;-79
2022/06/25 04:33:11;;;;;;;12.23;7.53;;;17.80;99.90;;;;;;5045754;28;20136;-79
2022/06/25 04:35:36;;;;;;;12.32;7.70;;;17.80;99.90;;;;;;5066293;28;20514;-79
2022/06/25 04:38:02;;;;;;;11.30;7.00;;;17.90;99.90;;;;;;5056588;28;20103;-79
2022/06/25 04:40:29;;;;;;;10.20;6.63;;;17.90;99.90;;;;;;5065629;28;20032;-80
2022/06/25 04:42:55;;;;;;;12.27;7.53;;;18.00;99.90;;;;;;5063934;28;20146;-79
2022/06/25 04:45:21;;;;;;;10.82;7.18;;;18.10;99.90;;;;;;5066886;28;20071;-80
2022/06/25 04:47:46;;;;;;;10.48;7.13;;;18.10;99.90;;;;;;5065833;28;20090;-80
2022/06/25 04:50:12;;;;;;;11.60;7.20;;;18.20;99.90;;;;;;5039363;28;20089;-79
2022/06/25 04:52:38;;;;;;;11.35;6.95;;;18.30;99.90;;;;;;5067781;28;20125;-80
2022/06/25 04:55:05;;;;;;;10.48;6.45;;;18.40;99.90;;;;;;5066364;28;20051;-79
2022/06/25 04:57:31;;;;;;;11.35;6.45;;;18.40;99.90;;;;;;5050498;28;20097;-80
2022/06/25 04:59:57;;;;;;;11.07;6.35;;;18.50;99.90;;;;;;5064566;28;21339;-78
2022/06/25 05:02:22;;;;;;;10.65;6.30;;;18.50;99.90;;;;;;5066925;28;20043;-79
2022/06/25 05:04:48;;;;;;;9.88;6.53;;;18.50;99.90;;;;;;5085923;28;20032;-79
2022/06/25 05:07:14;;;;;;;12.05;7.00;;;18.50;99.90;;;;;;5066372;28;20047;-78
2022/06/25 05:09:40;;;;;;;10.15;6.20;;;18.50;99.90;;;;;;5048124;28;20160;-78
2022/06/25 05:12:06;;;;;;;11.30;6.63;;;18.60;99.90;;;;;;5083312;28;20051;-79
2022/06/25 05:14:32;;;;;;;10.30;6.68;;;18.60;99.90;;;;;;5050079;28;20115;-80
2022/06/25 05:16:58;;;;;;;10.40;6.70;;;18.70;99.90;;;;;;5043827;28;20032;-79
2022/06/25 05:19:24;;;;;;;11.70;6.68;;;18.70;99.90;;;;;;5062365;28;20036;-79
2022/06/25 05:21:49;;;;;;;10.68;6.60;;;19.10;99.90;;;;;;5083341;28;20123;-79
2022/06/25 05:24:15;;;;;;;11.98;6.45;;;18.90;99.90;;;;;;5050541;28;20089;-79
2022/06/25 05:26:41;;;;;;;11.13;6.20;;;18.90;99.90;;;;;;5066842;28;20133;-80
2022/06/25 05:29:07;;;;;;;10.90;6.47;;;18.90;99.90;;;;;;5048260;28;20109;-79
2022/06/25 05:31:33;;;;;;;11.25;6.35;;;18.90;99.90;;;;;;5051366;28;20036;-79
2022/06/25 05:33:59;;;;;;;10.90;6.32;;;19.00;99.90;;;;;;5065872;28;20054;-79
2022/06/25 05:36:25;;;;;;;11.10;6.65;;;19.00;99.90;;;;;;5049831;28;20501;-79
2022/06/25 05:38:50;;;;;;;11.05;6.63;;;19.10;99.90;;;;;;5046421;28;20627;-79
2022/06/25 05:41:16;;;;;;;11.75;6.53;;;19.10;99.90;;;;;;5081500;28;20040;-79
2022/06/25 05:43:42;;;;;;;11.40;6.32;;;19.20;99.90;;;;;;5048715;28;20044;-79
2022/06/25 05:46:08;;;;;;;9.95;5.90;;;19.30;99.90;;;;;;5032813;28;20044;-79
2022/06/25 05:48:34;;;;;;;9.95;5.95;;;19.30;99.90;;;;;;5060603;28;20100;-78
2022/06/25 05:51:00;;;;;;;12.15;5.88;;;19.30;99.90;;;;;;5064248;28;20134;-79
2022/06/25 05:53:27;;;;;;;10.10;5.82;;;19.40;99.90;;;;;;5081967;28;20490;-79
2022/06/25 05:55:53;;;;;;;10.68;5.75;;;19.50;99.90;;;;;;5066982;28;20047;-80
2022/06/25 05:58:19;;;;;;;10.32;5.50;;;19.50;99.90;;;;;;5066032;28;20032;-79
2022/06/25 06:00:46;;;;;;;9.75;5.43;;;19.60;99.90;;;;;;5061108;28;20494;-79
2022/06/25 06:03:12;;;;;;;10.57;6.22;;;19.60;99.90;;;;;;5064434;28;20093;-80
2022/06/25 06:05:40;;;;;;;10.00;5.72;;;19.70;99.90;;;;;;5066244;28;20486;-80
2022/06/25 06:08:06;;;;;;;9.73;5.63;;;19.70;99.90;;;;;;5067543;28;20383;-79
2022/06/25 06:10:33;;;;;;;10.40;5.75;;;19.70;99.90;;;;;;5063357;28;20144;-80
2022/06/25 06:12:59;;;;;;;9.65;5.35;;;19.90;99.90;;;;;;5060393;28;20317;-79
2022/06/25 06:15:25;;;;;;;9.80;5.57;;;20.00;99.90;;;;;;5076580;28;20306;-80
2022/06/25 06:17:51;;;;;;;10.38;5.35;;;20.10;99.90;;;;;;5060013;28;20059;-79
2022/06/25 06:20:16;;;;;;;9.70;5.60;;;20.10;99.90;;;;;;5077134;28;20093;-79
2022/06/25 06:22:42;;;;;;;10.20;5.70;;;20.10;99.90;;;;;;5066495;28;20120;-79
2022/06/25 06:25:08;;;;;;;10.60;5.72;;;20.20;99.90;;;;;;5085681;28;20123;-79
2022/06/25 06:27:34;;;;;;;11.65;5.60;;;20.20;99.90;;;;;;5062029;28;20040;-80
2022/06/25 06:30:00;;;;;;;10.85;5.30;;;20.30;99.90;;;;;;5064221;28;20050;-79
2022/06/25 06:32:25;;;;;;;14.40;5.50;;;20.30;99.90;;;;;;5043865;28;20063;-79
2022/06/25 06:34:51;;;;;;;10.90;5.72;;;20.40;99.90;;;;;;5046884;28;20171;-79
2022/06/25 06:37:17;;;;;;;10.25;5.75;;;20.50;99.90;;;;;;5080086;28;20068;-79
2022/06/25 06:39:43;;;;;;;10.30;5.10;;;20.50;99.90;;;;;;5080427;28;20043;-79
2022/06/25 06:42:08;;;;;;;10.95;5.50;;;20.60;99.90;;;;;;5046110;28;20505;-80
2022/06/25 06:44:34;;;;;;;11.45;5.57;;;20.60;99.90;;;;;;5049753;28;20934;-80
2022/06/25 06:47:00;;;;;;;10.18;5.65;;;20.70;99.90;;;;;;5064362;28;20071;-80
2022/06/25 06:49:26;;;;;;;10.55;5.20;;;20.70;99.90;;;;;;5086875;28;20042;-79
2022/06/25 06:51:51;;;;;;;11.20;5.80;;;20.70;99.90;;;;;;5027930;28;20506;-79
2022/06/25 06:54:17;;;;;;;9.10;4.97;;;20.70;99.90;;;;;;5069855;28;20522;-80
2022/06/25 06:56:43;;;;;;;9.70;4.95;;;20.80;99.90;;;;;;5026526;28;20278;-79
2022/06/25 06:59:09;;;;;;;9.75;4.82;;;20.80;99.90;;;;;;5072141;28;20543;-80
2022/06/25 07:01:35;;;;;;;10.70;5.38;;;20.90;99.90;;;;;;5042090;28;20032;-80
2022/06/25 07:04:00;;;;;;;10.07;4.30;;;21.00;99.90;;;;;;5066974;28;20055;-79
2022/06/25 07:06:26;;;;;;;9.70;4.43;;;21.10;99.90;;;;;;5070690;28;20035;-78
2022/06/25 07:08:52;;;;;;;14.73;4.85;;;21.10;99.90;;;;;;5050736;28;20036;-81
2022/06/25 07:11:30;;;;;;;10.10;4.70;;;21.20;99.90;;;;;;5039439;28;20032;-79
2022/06/25 07:14:01;;;;;;;8.90;4.60;;;21.20;99.90;;;;;;5063540;28;20117;-78
2022/06/25 07:16:28;;;;;;;9.82;4.68;;;21.30;99.90;;;;;;5064622;28;20253;-78
2022/06/25 07:18:55;;;;;;;9.10;4.30;;;21.30;99.90;;;;;;5084798;28;20525;-78
2022/06/25 07:21:21;;;;;;;9.02;4.68;;;21.40;99.90;;;;;;5081424;28;20068;-78
2022/06/25 07:23:47;;;;;;;10.45;4.70;;;21.40;99.90;;;;;;5071169;28;20060;-78
2022/06/25 07:26:13;;;;;;;9.30;4.28;;;21.50;99.90;;;;;;5049930;28;20212;-79
2022/06/25 07:28:39;;;;;;;9.23;4.00;;;21.50;99.90;;;;;;5071747;28;20593;-79
2022/06/25 07:31:05;;;;;;;8.98;3.97;;;21.60;99.90;;;;;;5071131;28;20079;-78
2022/06/25 07:33:31;;;;;;;9.60;3.95;;;21.60;99.90;;;;;;5088182;28;20040;-78
2022/06/25 07:35:57;;;;;;;9.15;4.40;;;21.70;99.90;;;;;;5054346;28;20044;-79
2022/06/25 07:38:23;;;;;;;9.15;4.28;;;22.40;99.90;;;;;;5086876;28;20047;-78
2022/06/25 07:40:49;;;;;;;9.65;4.10;;;21.90;99.90;;;;;;5045492;28;20726;-79
2022/06/25 07:43:16;;;;;;;8.90;3.67;;;21.90;99.90;;;;;;5088140;28;20032;-78
2022/06/25 07:45:42;;;;;;;10.70;4.00;;;21.90;99.90;;;;;;5085929;28;20513;-80
2022/06/25 07:48:08;;;;;;;10.80;3.90;;;21.90;99.90;;;;;;5043530;28;20052;-79
2022/06/25 07:53:19;;;;;;;7.85;3.28;;;22.10;99.90;;;;;;5079539;28;20522;-79
2022/06/25 07:55:45;;;;;;;9.13;3.33;;;22.20;99.90;;;;;;5054145;28;20051;-80
2022/06/25 07:58:12;;;;;;;9.25;3.10;;;22.40;99.90;;;;;;5059624;28;20109;-79
2022/06/25 08:00:38;;;;;;;9.43;3.50;;;22.50;99.90;;;;;;5052493;28;20044;-80
2022/06/25 08:03:04;;;;;;;9.07;3.40;;;22.60;99.90;;;;;;5056240;28;20448;-79
2022/06/25 08:05:29;;;;;;;8.18;3.40;;;22.70;99.90;;;;;;5066102;28;20135;-80
2022/06/25 08:07:55;;;;;;;8.82;3.50;;;22.70;99.90;;;;;;5089415;28;20046;-79
2022/06/25 08:10:21;;;;;;;8.43;2.88;;;22.80;99.90;;;;;;5072892;28;20040;-80
2022/06/25 08:12:47;;;;;;;7.35;2.50;;;22.80;99.90;;;;;;5055579;28;20056;-79
2022/06/25 08:15:14;;;;;;;8.68;2.88;;;22.80;99.90;;;;;;5056148;28;20530;-79
2022/06/25 08:17:40;;;;;;;6.85;2.65;;;22.80;99.90;;;;;;5089390;28;20036;-79
2022/06/25 08:20:06;;;;;;;7.07;2.60;;;22.80;99.90;;;;;;5073167;28;20067;-79
2022/06/25 08:22:32;;;;;;;8.90;2.70;;;22.90;99.90;;;;;;5072470;28;20402;-80
2022/06/25 08:24:58;;;;;;;9.48;2.60;;;23.00;99.90;;;;;;5056074;28;20040;-80
2022/06/25 08:27:24;;;;;;;10.35;2.75;;;23.10;99.90;;;;;;5085601;28;20047;-80
2022/06/25 08:29:50;;;;;;;7.63;2.38;;;23.20;99.90;;;;;;5036243;28;20083;-80
2022/06/25 08:32:15;;;;;;;9.85;2.42;;;23.20;99.90;;;;;;5052481;28;20080;-79
2022/06/25 08:34:41;;;;;;;9.55;2.40;;;23.40;99.90;;;;;;5036059;28;20072;-79
2022/06/25 08:37:07;;;;;;;8.15;2.30;;;23.50;99.90;;;;;;5068844;28;20400;-80
2022/06/25 08:39:33;;;;;;;7.38;2.40;;;23.60;99.90;;;;;;5052747;28;20044;-81
2022/06/25 08:42:03;;;;;;;6.10;2.30;;;23.80;99.90;;;;;;5052104;28;20085;-80
2022/06/25 08:44:30;;;;;;;7.82;2.58;;;24.00;99.90;;;;;;5076561;28;20047;-80
2022/06/25 08:46:58;;;;;;;6.50;2.10;;;24.00;99.90;;;;;;5088769;28;20042;-80
2022/06/25 08:49:24;;;;;;;6.65;2.20;;;24.20;99.90;;;;;;5072121;28;20039;-80
2022/06/25 08:51:53;;;;;;;8.00;2.40;;;24.40;99.90;;;;;;5071840;28;20040;-80
2022/06/25 08:54:20;;;;;;;6.95;2.13;;;24.50;99.90;;;;;;5069597;28;20059;-80
2022/06/25 08:56:46;;;;;;;7.63;2.17;;;24.60;99.90;;;;;;5070241;28;20044;-79
2022/06/25 08:59:12;;;;;;;7.45;2.30;;;24.40;99.90;;;;;;5053081;28;20040;-79
2022/06/25 09:01:38;;;;;;;6.00;2.00;;;24.20;99.90;;;;;;5068703;28;20033;-81
2022/06/25 09:04:04;;;;;;;8.02;2.20;;;23.90;99.90;;;;;;5051940;28;20040;-80
2022/06/25 09:06:30;;;;;;;10.10;3.05;;;23.70;99.90;;;;;;5051466;28;20048;-80
2022/06/25 09:09:15;;;;;;;6.63;1.95;;;23.60;99.90;;;;;;5051910;28;20094;-80
2022/06/25 09:11:54;;;;;;;6.93;2.00;;;23.60;99.90;;;;;;5051048;28;20052;-79
2022/06/25 09:14:29;;;;;;;7.75;2.25;;;23.70;99.90;;;;;;5075664;28;20109;-80
2022/06/25 09:17:14;;;;;;;8.32;2.30;;;23.80;99.90;;;;;;5088249;28;20055;-80
2022/06/25 09:19:47;;;;;;;7.32;2.20;;;24.00;99.90;;;;;;5071790;28;20064;-79
2022/06/25 09:22:18;;;;;;;10.50;2.20;;;23.90;99.90;;;;;;5088448;28;20044;-79
2022/06/25 09:24:55;;;;;;;5.70;2.00;;;23.90;99.90;;;;;;5071568;28;20044;-80
2022/06/25 09:27:38;;;;;;;7.60;2.30;;;24.00;99.90;;;;;;5051465;28;20361;-79
2022/06/25 09:30:09;;;;;;;5.88;2.00;;;24.10;99.90;;;;;;5067946;28;20060;-80
2022/06/25 09:32:46;;;;;;;6.70;2.00;;;24.10;99.90;;;;;;5067744;28;20044;-79
2022/06/25 09:35:14;;;;;;;7.38;2.20;;;24.10;99.90;;;;;;5051299;28;20036;-79
2022/06/25 09:37:40;;;;;;;11.00;2.72;;;24.00;99.90;;;;;;5067690;28;20538;-80
2022/06/25 09:40:09;;;;;;;7.00;2.28;;;24.10;99.90;;;;;;5053090;28;20048;-80
2022/06/25 09:42:35;;;;;;;6.00;2.25;;;24.10;99.90;;;;;;5062755;28;20048;-80
2022/06/25 09:45:05;;;;;;;6.75;2.15;;;24.00;99.90;;;;;;5051148;28;20047;-80
2022/06/25 09:47:36;;;;;;;6.32;1.92;;;24.10;99.90;;;;;;5050951;28;20105;-80
2022/06/25 09:50:06;;;;;;;6.03;1.90;;;24.00;99.90;;;;;;5051061;28;20072;-81
2022/06/25 09:52:33;;;;;;;5.40;1.83;;;24.00;99.90;;;;;;5067695;28;20516;-80
2022/06/25 09:54:59;;;;;;;6.10;2.00;;;24.00;99.90;;;;;;5060999;28;20119;-80
2022/06/25 09:57:26;;;;;;;7.97;1.90;;;24.00;99.90;;;;;;5034400;28;20112;-81
2022/06/25 09:59:54;;;;;;;5.97;2.10;;;24.00;99.90;;;;;;5067652;28;20550;-80
2022/06/25 10:02:19;;;;;;;5.38;1.67;;;24.20;99.90;;;;;;5067454;28;20036;-80
2022/06/25 10:04:47;;;;;;;3.88;1.60;;;24.20;99.90;;;;;;5017781;28;20575;-80
2022/06/25 10:07:15;;;;;;;7.50;1.83;;;24.30;99.90;;;;;;5050256;28;20079;-80
2022/06/25 10:09:43;;;;;;;3.67;1.60;;;24.40;99.90;;;;;;5067794;28;20036;-80
2022/06/25 10:12:10;;;;;;;4.40;1.70;;;24.60;99.90;;;;;;5050543;28;20041;-81
2022/06/25 10:14:36;;;;;;;5.35;1.70;;;24.70;99.90;;;;;;5050888;28;20136;-80
2022/06/25 10:17:06;;;;;;;5.88;2.10;;;24.70;99.90;;;;;;5056740;28;20072;-80
2022/06/25 10:19:32;;;;;;;6.22;1.73;;;24.80;99.90;;;;;;5070721;28;20170;-80
2022/06/25 10:21:59;;;;;;;5.00;1.67;;;24.80;99.90;;;;;;5070509;28;20036;-80
2022/06/25 10:24:25;;;;;;;4.93;1.63;;;24.80;99.90;;;;;;5091094;28;20036;-80
2022/06/25 10:26:51;;;;;;;5.35;1.70;;;24.80;99.90;;;;;;5058146;28;20032;-81
2022/06/25 10:29:28;;;;;;;5.35;1.70;;;24.70;99.90;;;;;;5041817;28;20044;-80
2022/06/25 10:32:14;;;;;;;6.35;1.60;;;24.70;99.90;;;;;;5074834;28;20421;-80
2022/06/25 10:34:58;;;;;;;4.18;1.52;;;24.80;99.90;;;;;;5074842;28;20042;-80
2022/06/25 10:37:24;;;;;;;3.83;1.58;;;24.90;99.90;;;;;;5091191;28;20055;-80
2022/06/25 10:39:56;;;;;;;4.63;1.50;;;25.00;99.90;;;;;;5074862;28;20040;-80
2022/06/25 10:45:14;;;;;;;4.88;1.60;;;24.90;99.90;;;;;;5070596;28;20076;-81
2022/06/25 10:47:59;;;;;;;5.85;1.73;;;24.90;99.90;;;;;;5071047;28;20048;-80
2022/06/25 10:50:27;;;;;;;4.88;1.80;;;25.10;99.90;;;;;;5063033;28;20486;-80
2022/06/25 10:53:05;;;;;;;3.92;1.58;;;25.30;99.90;;;;;;5090820;28;20525;-80
2022/06/25 10:55:39;;;;;;;6.80;1.70;;;25.30;99.90;;;;;;5078397;28;20040;-80
2022/06/25 10:58:12;;;;;;;4.95;1.75;;;25.40;99.90;;;;;;5054278;28;20081;-80
2022/06/25 11:00:51;;;;;;;6.18;1.70;;;25.40;99.90;;;;;;5053947;28;20139;-80
2022/06/25 11:03:37;;;;;;;5.45;1.50;;;25.50;99.90;;;;;;5070669;28;20049;-81
2022/06/25 11:06:29;;;;;;;4.63;1.50;;;25.40;99.90;;;;;;5043027;28;20055;-80
2022/06/25 11:09:06;;;;;;;4.63;1.60;;;25.50;99.90;;;;;;5047838;28;20056;-80
2022/06/25 11:11:34;;;;;;;4.25;1.40;;;25.40;99.90;;;;;;5070388;28;20127;-81
2022/06/25 11:14:02;;;;;;;3.35;1.40;;;25.60;99.90;;;;;;5037553;28;20083;-80
2022/06/25 11:16:29;;;;;;;6.18;1.58;;;25.70;99.90;;;;;;5053508;28;20056;-80
2022/06/25 11:18:57;;;;;;;6.70;1.73;;;25.90;99.90;;;;;;5053911;28;20044;-80
2022/06/25 11:21:28;;;;;;;5.82;1.52;;;26.00;99.90;;;;;;5053478;28;20155;-81
2022/06/25 11:24:14;;;;;;;5.13;1.50;;;26.00;99.90;;;;;;5054821;28;20522;-80
2022/06/25 11:29:47;;;;;;;4.28;1.55;;;26.40;99.90;;;;;;5086395;28;20093;-80
2022/06/25 11:32:15;;;;;;;4.60;1.60;;;26.50;99.90;;;;;;5089906;28;20056;-81
2022/06/25 11:34:41;;;;;;;4.10;1.60;;;26.60;99.90;;;;;;5072759;28;22019;-81
2022/06/25 11:37:18;;;;;;;5.10;1.70;;;26.70;99.90;;;;;;5073099;28;20039;-81
2022/06/25 11:39:46;;;;;;;4.55;1.50;;;26.80;99.90;;;;;;5073844;28;20040;-81
2022/06/25 11:42:12;;;;;;;4.55;1.52;;;26.90;99.90;;;;;;5090219;28;20044;-80
2022/06/25 11:44:47;;;;;;;6.55;1.63;;;26.90;99.90;;;;;;5072126;28;20499;-81
2022/06/25 11:47:20;;;;;;;6.75;1.75;;;27.00;99.90;;;;;;5053329;28;20294;-80
2022/06/25 11:49:47;;;;;;;4.93;1.42;;;26.80;99.90;;;;;;5070434;28;20061;-81
2022/06/25 11:52:15;;;;;;;7.05;1.90;;;26.40;99.90;;;;;;5052887;28;20605;-80
2022/06/25 11:54:42;;;;;;;6.68;2.13;;;26.20;99.90;;;;;;5058966;28;20470;-80
2022/06/25 11:57:10;;;;;;;3.63;1.30;;;25.90;99.90;;;;;;5027168;28;20037;-80
2022/06/25 11:59:38;;;;;;;5.75;1.60;;;25.70;99.90;;;;;;5053069;28;20046;-81
2022/06/25 12:02:08;;;;;;;7.75;1.98;;;25.60;99.90;;;;;;5052702;28;20042;-80
2022/06/25 12:04:54;;;;;;;5.60;1.70;;;25.70;99.90;;;;;;5052987;28;20044;-80
2022/06/25 12:07:24;;;;;;;5.05;1.50;;;26.10;99.90;;;;;;5053092;28;20441;-80
2022/06/25 12:09:52;;;;;;;5.15;1.58;;;26.20;99.90;;;;;;5069632;28;20071;-80
2022/06/25 12:12:18;;;;;;;5.47;1.70;;;26.60;99.90;;;;;;5052394;28;20120;-81
2022/06/25 12:14:47;;;;;;;6.43;1.80;;;26.80;99.90;;;;;;5052632;28;20074;-80
2022/06/25 12:17:13;;;;;;;7.47;1.40;;;27.00;99.90;;;;;;5035813;28;20115;-80
2022/06/25 12:19:46;;;;;;;4.85;1.50;;;27.00;99.90;;;;;;5053062;28;20120;-80
2022/06/25 12:22:25;;;;;;;7.07;1.98;;;27.00;99.90;;;;;;5069207;28;20514;-81
2022/06/25 12:24:53;;;;;;;4.85;1.70;;;26.70;99.90;;;;;;5036389;28;20063;-81
2022/06/25 12:27:19;;;;;;;6.55;1.60;;;26.30;99.90;;;;;;5054890;28;20253;-81
2022/06/25 12:29:52;;;;;;;4.38;1.52;;;26.00;99.90;;;;;;5055972;28;20131;-81
2022/06/25 12:32:18;;;;;;;5.88;1.60;;;25.70;99.90;;;;;;5088994;28;20054;-81
2022/06/25 12:34:47;;;;;;;6.38;1.40;;;25.50;99.90;;;;;;5055988;28;20040;-80
2022/06/25 12:37:29;;;;;;;4.90;1.60;;;25.30;99.90;;;;;;5072236;28;20040;-81
2022/06/25 12:39:59;;;;;;;4.82;1.60;;;25.20;99.90;;;;;;5089415;28;20112;-80
2022/06/25 12:42:28;;;;;;;5.13;1.50;;;25.10;99.90;;;;;;5052411;28;20059;-81
2022/06/25 12:44:56;;;;;;;6.03;1.60;;;24.90;99.90;;;;;;5060893;28;20066;-80
2022/06/25 12:47:22;;;;;;;3.20;1.48;;;24.80;99.90;;;;;;5067290;28;20052;-80
2022/06/25 12:49:53;;;;;;;7.00;1.67;;;24.70;99.90;;;;;;5052404;28;20045;-81
2022/06/25 12:52:24;;;;;;;6.50;1.75;;;24.60;99.90;;;;;;5068378;28;20044;-80
2022/06/25 12:54:53;;;;;;;5.70;1.63;;;24.30;99.90;;;;;;5073065;28;20111;-81
2022/06/25 12:57:19;;;;;;;4.43;1.65;;;24.00;99.90;;;;;;5036348;28;20106;-80